createdAt,value
2018-10-11T00:00:47.217Z,19.47
2018-10-11T00:01:46.974Z,19.45
2018-10-11T00:02:47.247Z,19.46
2018-10-11T00:03:47.135Z,19.47
2018-10-11T00:04:46.970Z,19.46
2018-10-11T00:05:46.948Z,19.46
2018-10-11T00:06:47.040Z,19.45
2018-10-11T00:07:46.920Z,19.45
2018-10-11T00:08:47.188Z,19.44
2018-10-11T00:09:46.820Z,19.48
2018-10-11T00:10:47.088Z,19.45
2018-10-11T00:11:46.945Z,19.45
2018-10-11T00:12:47.307Z,19.46
2018-10-11T00:13:47.166Z,19.44
2018-10-11T00:14:46.950Z,19.44
2018-10-11T00:15:47.095Z,19.45
2018-10-11T00:16:46.962Z,19.44
2018-10-11T00:17:47.198Z,19.45
2018-10-11T00:18:46.886Z,19.46
2018-10-11T00:19:46.981Z,19.44
2018-10-11T00:20:47.007Z,19.45
2018-10-11T00:21:47.097Z,19.44
2018-10-11T00:22:46.929Z,19.44
2018-10-11T00:23:46.857Z,19.45
2018-10-11T00:24:47.039Z,19.45
2018-10-11T00:25:46.833Z,19.43
2018-10-11T00:26:46.783Z,19.43
2018-10-11T00:27:46.889Z,19.44
2018-10-11T00:28:47.036Z,19.42
2018-10-11T00:29:46.850Z,19.44
2018-10-11T00:30:47.638Z,19.44
2018-10-11T00:31:46.946Z,19.46
2018-10-11T00:32:46.695Z,19.43
2018-10-11T00:33:47.000Z,19.46
2018-10-11T00:34:46.875Z,19.43
2018-10-11T00:35:47.064Z,19.44
2018-10-11T00:36:46.925Z,19.45
2018-10-11T00:37:47.089Z,19.44
2018-10-11T00:38:47.382Z,19.44
2018-10-11T00:39:46.927Z,19.44
2018-10-11T00:40:46.960Z,19.45
2018-10-11T00:41:47.128Z,19.44
2018-10-11T00:42:47.340Z,19.43
2018-10-11T00:43:46.795Z,19.45
2018-10-11T00:44:47.810Z,19.42
2018-10-11T00:45:46.854Z,19.47
2018-10-11T00:46:47.349Z,19.44
2018-10-11T00:47:47.067Z,19.44
2018-10-11T00:48:46.707Z,19.42
2018-10-11T00:49:47.313Z,19.43
2018-10-11T00:50:47.004Z,19.42
2018-10-11T00:51:47.163Z,19.45
2018-10-11T00:52:47.242Z,19.43
2018-10-11T00:53:46.930Z,19.42
2018-10-11T00:54:46.919Z,19.44
2018-10-11T00:55:47.028Z,19.42
2018-10-11T00:56:47.201Z,19.44
2018-10-11T00:57:46.845Z,19.43
2018-10-11T00:58:46.834Z,19.43
2018-10-11T00:59:47.234Z,19.43
2018-10-11T01:00:46.988Z,19.43
2018-10-11T01:01:46.880Z,19.44
2018-10-11T01:02:46.965Z,19.43
2018-10-11T01:03:46.878Z,19.44
2018-10-11T01:04:47.184Z,19.43
2018-10-11T01:05:47.070Z,19.44
2018-10-11T01:06:46.825Z,19.44
2018-10-11T01:07:47.736Z,19.42
2018-10-11T01:08:47.002Z,19.43
2018-10-11T01:09:47.020Z,19.45
2018-10-11T01:10:46.733Z,19.42
2018-10-11T01:11:47.110Z,19.44
2018-10-11T01:12:46.931Z,19.43
2018-10-11T01:13:46.878Z,19.43
2018-10-11T01:14:47.133Z,19.42
2018-10-11T01:15:47.739Z,19.44
2018-10-11T01:16:46.919Z,19.4
2018-10-11T01:17:46.947Z,19.41
2018-10-11T01:18:46.859Z,19.44
2018-10-11T01:19:47.023Z,19.41
2018-10-11T01:20:46.931Z,19.42
2018-10-11T01:21:46.838Z,19.44
2018-10-11T01:22:46.765Z,19.43
2018-10-11T01:23:47.548Z,19.4
2018-10-11T01:24:46.816Z,19.41
2018-10-11T01:25:46.817Z,19.4
2018-10-11T01:26:46.927Z,19.42
2018-10-11T01:27:47.088Z,19.45
2018-10-11T01:28:46.779Z,19.43
2018-10-11T01:29:47.860Z,19.42
2018-10-11T01:30:46.791Z,19.44
2018-10-11T01:31:46.861Z,19.44
2018-10-11T01:32:46.869Z,19.41
2018-10-11T01:33:46.867Z,19.42
2018-10-11T01:34:46.879Z,19.42
2018-10-11T01:35:46.905Z,19.4
2018-10-11T01:36:46.876Z,19.41
2018-10-11T01:37:46.716Z,19.41
2018-10-11T01:38:48.024Z,19.4
2018-10-11T01:39:46.810Z,19.42
2018-10-11T01:40:47.099Z,19.4
2018-10-11T01:41:46.866Z,19.4
2018-10-11T01:42:46.970Z,19.4
2018-10-11T01:43:46.833Z,19.4
2018-10-11T01:44:46.778Z,19.4
2018-10-11T01:45:46.905Z,19.41
2018-10-11T01:46:46.773Z,19.4
2018-10-11T01:47:46.905Z,19.41
2018-10-11T01:48:46.973Z,19.43
2018-10-11T01:49:46.865Z,19.42
2018-10-11T01:50:46.724Z,19.4
2018-10-11T01:51:47.004Z,19.41
2018-10-11T01:52:47.329Z,19.4
2018-10-11T01:53:46.884Z,19.4
2018-10-11T01:54:46.940Z,19.39
2018-10-11T01:55:46.857Z,19.39
2018-10-11T01:56:47.560Z,19.38
2018-10-11T01:57:46.807Z,19.41
2018-10-11T01:58:46.922Z,19.38
2018-10-11T01:59:46.889Z,19.42
2018-10-11T02:00:46.868Z,19.41
2018-10-11T02:01:47.056Z,19.41
2018-10-11T02:02:46.816Z,19.41
2018-10-11T02:03:46.907Z,19.41
2018-10-11T02:04:47.272Z,19.42
2018-10-11T02:05:46.762Z,19.41
2018-10-11T02:06:47.033Z,19.42
2018-10-11T02:07:47.195Z,19.42
2018-10-11T02:08:47.019Z,19.41
2018-10-11T02:09:46.950Z,19.39
2018-10-11T02:10:47.124Z,19.41
2018-10-11T02:11:46.865Z,19.42
2018-10-11T02:12:47.236Z,19.42
2018-10-11T02:13:46.969Z,19.4
2018-10-11T02:14:46.963Z,19.4
2018-10-11T02:15:46.940Z,19.39
2018-10-11T02:16:46.859Z,19.41
2018-10-11T02:17:46.905Z,19.41
2018-10-11T02:18:47.027Z,19.41
2018-10-11T02:19:47.053Z,19.39
2018-10-11T02:20:46.834Z,19.4
2018-10-11T02:21:46.893Z,19.42
2018-10-11T02:22:46.801Z,19.41
2018-10-11T02:23:47.155Z,19.41
2018-10-11T02:24:46.888Z,19.4
2018-10-11T02:25:47.163Z,19.4
2018-10-11T02:26:46.843Z,19.39
2018-10-11T02:27:47.030Z,19.42
2018-10-11T02:28:47.051Z,19.4
2018-10-11T02:29:46.864Z,19.39
2018-10-11T02:30:46.958Z,19.39
2018-10-11T02:31:47.432Z,19.41
2018-10-11T02:32:46.907Z,19.4
2018-10-11T02:33:46.795Z,19.41
2018-10-11T02:34:46.942Z,19.39
2018-10-11T02:35:46.998Z,19.4
2018-10-11T02:36:47.211Z,19.4
2018-10-11T02:37:47.136Z,19.41
2018-10-11T02:38:47.013Z,19.4
2018-10-11T02:39:46.909Z,19.4
2018-10-11T02:40:47.040Z,19.41
2018-10-11T02:41:47.361Z,19.4
2018-10-11T02:42:46.832Z,19.41
2018-10-11T02:43:46.831Z,19.4
2018-10-11T02:44:46.920Z,19.4
2018-10-11T02:45:46.899Z,19.4
2018-10-11T02:46:47.213Z,19.41
2018-10-11T02:47:46.887Z,19.4
2018-10-11T02:48:46.880Z,19.4
2018-10-11T02:49:46.897Z,19.41
2018-10-11T02:50:46.851Z,19.41
2018-10-11T02:51:47.102Z,19.4
2018-10-11T02:52:46.866Z,19.41
2018-10-11T02:53:46.965Z,19.42
2018-10-11T02:54:46.719Z,19.41
2018-10-11T02:55:47.026Z,19.41
2018-10-11T02:56:47.387Z,19.38
2018-10-11T02:57:46.878Z,19.43
2018-10-11T02:58:47.259Z,19.4
2018-10-11T02:59:46.873Z,19.39
2018-10-11T03:00:47.197Z,19.4
2018-10-11T03:01:47.033Z,19.41
2018-10-11T03:02:46.682Z,19.41
2018-10-11T03:03:46.903Z,19.41
2018-10-11T03:04:46.889Z,19.4
2018-10-11T03:05:47.103Z,19.39
2018-10-11T03:06:46.790Z,19.4
2018-10-11T03:07:47.317Z,19.38
2018-10-11T03:08:46.938Z,19.4
2018-10-11T03:09:46.875Z,19.41
2018-10-11T03:10:46.834Z,19.4
2018-10-11T03:11:46.811Z,19.39
2018-10-11T03:12:46.909Z,19.37
2018-10-11T03:13:46.839Z,19.4
2018-10-11T03:14:46.950Z,19.38
2018-10-11T03:15:47.039Z,19.39
2018-10-11T03:16:46.763Z,19.39
2018-10-11T03:17:47.018Z,19.38
2018-10-11T03:18:46.770Z,19.4
2018-10-11T03:19:46.989Z,19.39
2018-10-11T03:20:46.689Z,19.39
2018-10-11T03:21:46.756Z,19.37
2018-10-11T03:22:46.897Z,19.4
2018-10-11T03:23:46.966Z,19.39
2018-10-11T03:24:47.029Z,19.41
2018-10-11T03:25:46.799Z,19.39
2018-10-11T03:26:46.834Z,19.4
2018-10-11T03:27:47.167Z,19.39
2018-10-11T03:28:46.760Z,19.39
2018-10-11T03:29:46.892Z,19.37
2018-10-11T03:30:46.758Z,19.39
2018-10-11T03:31:46.890Z,19.42
2018-10-11T03:32:47.113Z,19.38
2018-10-11T03:33:46.798Z,19.4
2018-10-11T03:34:46.853Z,19.38
2018-10-11T03:35:47.120Z,19.38
2018-10-11T03:36:47.039Z,19.37
2018-10-11T03:37:47.584Z,19.4
2018-10-11T03:38:46.735Z,19.37
2018-10-11T03:39:47.150Z,19.38
2018-10-11T03:40:46.717Z,19.4
2018-10-11T03:41:46.843Z,19.38
2018-10-11T03:42:46.737Z,19.39
2018-10-11T03:43:46.780Z,19.37
2018-10-11T03:44:46.892Z,19.38
2018-10-11T03:45:46.883Z,19.4
2018-10-11T03:46:47.138Z,19.38
2018-10-11T03:47:46.893Z,19.4
2018-10-11T03:48:47.109Z,19.4
2018-10-11T03:49:46.850Z,19.38
2018-10-11T03:50:46.848Z,19.36
2018-10-11T03:51:46.901Z,19.4
2018-10-11T03:52:46.907Z,19.38
2018-10-11T03:53:47.033Z,19.36
2018-10-11T03:54:46.887Z,19.39
2018-10-11T03:55:46.885Z,19.37
2018-10-11T03:56:46.839Z,19.37
2018-10-11T03:57:47.066Z,19.38
2018-10-11T03:58:46.658Z,19.4
2018-10-11T03:59:46.882Z,19.37
2018-10-11T04:00:47.083Z,19.41
2018-10-11T04:01:47.003Z,19.39
2018-10-11T04:02:46.724Z,19.37
2018-10-11T04:03:47.055Z,19.41
2018-10-11T04:04:47.191Z,19.4
2018-10-11T04:05:46.814Z,19.38
2018-10-11T04:06:46.815Z,19.36
2018-10-11T04:07:46.770Z,19.38
2018-10-11T04:08:46.955Z,19.37
2018-10-11T04:09:47.040Z,19.4
2018-10-11T04:10:47.140Z,19.39
2018-10-11T04:11:46.972Z,19.38
2018-10-11T04:12:46.974Z,19.38
2018-10-11T04:13:46.871Z,19.39
2018-10-11T04:14:47.014Z,19.4
2018-10-11T04:15:47.162Z,19.38
2018-10-11T04:16:46.857Z,19.38
2018-10-11T04:17:46.916Z,19.4
2018-10-11T04:18:46.960Z,19.38
2018-10-11T04:19:47.011Z,19.38
2018-10-11T04:20:47.447Z,19.37
2018-10-11T04:21:46.925Z,19.39
2018-10-11T04:22:46.807Z,19.37
2018-10-11T04:23:46.737Z,19.36
2018-10-11T04:24:46.902Z,19.39
2018-10-11T04:25:46.989Z,19.38
2018-10-11T04:26:46.904Z,19.37
2018-10-11T04:27:47.199Z,19.38
2018-10-11T04:28:46.908Z,19.38
2018-10-11T04:29:47.411Z,19.38
2018-10-11T04:30:47.128Z,19.38
2018-10-11T04:31:47.120Z,19.37
2018-10-11T04:32:46.846Z,19.38
2018-10-11T04:33:46.852Z,19.38
2018-10-11T04:34:46.833Z,19.36
2018-10-11T04:35:46.661Z,19.36
2018-10-11T04:36:46.976Z,19.37
2018-10-11T04:37:46.832Z,19.37
2018-10-11T04:38:46.825Z,19.36
2018-10-11T04:39:46.714Z,19.37
2018-10-11T04:40:46.785Z,19.36
2018-10-11T04:41:46.734Z,19.36
2018-10-11T04:42:47.622Z,19.36
2018-10-11T04:43:46.788Z,19.35
2018-10-11T04:44:46.857Z,19.38
2018-10-11T04:45:46.893Z,19.4
2018-10-11T04:46:46.843Z,19.37
2018-10-11T04:47:46.912Z,19.37
2018-10-11T04:48:46.745Z,19.39
2018-10-11T04:49:46.673Z,19.4
2018-10-11T04:50:46.883Z,19.36
2018-10-11T04:51:46.865Z,19.36
2018-10-11T04:52:47.210Z,19.36
2018-10-11T04:53:46.838Z,19.37
2018-10-11T04:54:46.875Z,19.37
2018-10-11T04:55:46.685Z,19.38
2018-10-11T04:56:47.198Z,19.38
2018-10-11T04:57:46.980Z,19.39
2018-10-11T04:58:46.723Z,19.38
2018-10-11T04:59:47.687Z,19.39
2018-10-11T05:00:46.855Z,19.38
2018-10-11T05:01:46.792Z,19.39
2018-10-11T05:02:47.028Z,19.37
2018-10-11T05:03:46.972Z,19.38
2018-10-11T05:04:47.091Z,19.38
2018-10-11T05:05:46.788Z,19.37
2018-10-11T05:06:47.146Z,19.37
2018-10-11T05:07:46.938Z,19.37
2018-10-11T05:08:46.876Z,19.4
2018-10-11T05:09:46.874Z,19.39
2018-10-11T05:10:46.832Z,19.4
2018-10-11T05:11:47.075Z,19.36
2018-10-11T05:12:47.088Z,19.39
2018-10-11T05:13:47.092Z,19.38
2018-10-11T05:14:47.372Z,19.38
2018-10-11T05:15:47.203Z,19.38
2018-10-11T05:16:47.122Z,19.39
2018-10-11T05:17:47.244Z,19.36
2018-10-11T05:18:47.081Z,19.39
2018-10-11T05:19:46.972Z,19.38
2018-10-11T05:20:46.828Z,19.4
2018-10-11T05:21:47.183Z,19.39
2018-10-11T05:22:46.868Z,19.4
2018-10-11T05:23:46.940Z,19.37
2018-10-11T05:24:46.831Z,19.4
2018-10-11T05:25:46.974Z,19.39
2018-10-11T05:26:47.197Z,19.39
2018-10-11T05:27:46.736Z,19.4
2018-10-11T05:28:47.099Z,19.39
2018-10-11T05:29:46.873Z,19.38
2018-10-11T05:30:47.024Z,19.38
2018-10-11T05:31:46.794Z,19.38
2018-10-11T05:32:46.945Z,19.38
2018-10-11T05:33:47.772Z,19.39
2018-10-11T05:34:47.009Z,19.38
2018-10-11T05:35:47.137Z,19.36
2018-10-11T05:36:46.736Z,19.39
2018-10-11T05:37:46.954Z,19.4
2018-10-11T05:38:46.858Z,19.39
2018-10-11T05:39:47.046Z,19.41
2018-10-11T05:40:47.181Z,19.4
2018-10-11T05:41:47.308Z,19.4
2018-10-11T05:42:46.786Z,19.38
2018-10-11T05:43:46.860Z,19.37
2018-10-11T05:44:46.874Z,19.37
2018-10-11T05:45:47.239Z,19.4
2018-10-11T05:46:47.015Z,19.39
2018-10-11T05:47:47.364Z,19.39
2018-10-11T05:48:46.761Z,19.39
2018-10-11T05:49:47.039Z,19.4
2018-10-11T05:50:47.296Z,19.39
2018-10-11T05:51:46.656Z,19.39
2018-10-11T05:52:47.063Z,19.38
2018-10-11T05:53:47.286Z,19.4
2018-10-11T05:54:46.824Z,19.4
2018-10-11T05:55:46.991Z,19.41
2018-10-11T05:56:48.693Z,19.41
2018-10-11T05:57:46.744Z,19.4
2018-10-11T05:58:47.059Z,19.39
2018-10-11T05:59:46.783Z,19.39
2018-10-11T06:00:46.923Z,19.38
2018-10-11T06:01:46.948Z,19.39
2018-10-11T06:02:46.842Z,19.37
2018-10-11T06:03:46.883Z,19.41
2018-10-11T06:04:46.629Z,19.4
2018-10-11T06:05:46.760Z,19.39
2018-10-11T06:06:46.848Z,19.42
2018-10-11T06:07:46.782Z,19.39
2018-10-11T06:08:46.870Z,19.38
2018-10-11T06:09:46.818Z,19.38
2018-10-11T06:10:46.831Z,19.39
2018-10-11T06:11:47.112Z,19.39
2018-10-11T06:12:46.833Z,19.39
2018-10-11T06:13:46.746Z,19.38
2018-10-11T06:14:46.952Z,19.39
2018-10-11T06:15:46.690Z,19.41
2018-10-11T06:16:46.812Z,19.39
2018-10-11T06:17:47.698Z,19.38
2018-10-11T06:18:46.889Z,19.38
2018-10-11T06:19:46.860Z,19.4
2018-10-11T06:20:47.107Z,19.4
2018-10-11T06:21:46.812Z,19.41
2018-10-11T06:22:47.170Z,19.38
2018-10-11T06:23:46.855Z,19.39
2018-10-11T06:24:47.211Z,19.4
2018-10-11T06:25:47.270Z,19.4
2018-10-11T06:26:47.272Z,19.38
2018-10-11T06:27:47.004Z,19.39
2018-10-11T06:28:47.278Z,19.38
2018-10-11T06:29:46.858Z,19.4
2018-10-11T06:30:47.105Z,19.39
2018-10-11T06:31:47.381Z,19.4
2018-10-11T06:32:46.860Z,19.38
2018-10-11T06:33:47.192Z,19.4
2018-10-11T06:34:46.849Z,19.4
2018-10-11T06:35:47.479Z,19.4
2018-10-11T06:36:46.846Z,19.4
2018-10-11T06:37:46.940Z,19.39
2018-10-11T06:38:46.914Z,19.39
2018-10-11T06:39:46.719Z,19.41
2018-10-11T06:40:46.650Z,19.39
2018-10-11T06:41:47.563Z,19.38
2018-10-11T06:42:47.811Z,19.4
2018-10-11T06:43:46.815Z,19.39
2018-10-11T06:44:46.833Z,19.37
2018-10-11T06:45:46.923Z,19.39
2018-10-11T06:46:47.039Z,19.4
2018-10-11T06:47:46.978Z,19.42
2018-10-11T06:48:46.652Z,19.42
2018-10-11T06:49:47.397Z,19.38
2018-10-11T06:50:46.614Z,19.39
2018-10-11T06:51:46.800Z,19.39
2018-10-11T06:52:46.829Z,19.39
2018-10-11T06:53:46.991Z,19.4
2018-10-11T06:54:46.930Z,19.4
2018-10-11T06:55:47.245Z,19.4
2018-10-11T06:56:47.061Z,19.39
2018-10-11T06:57:47.216Z,19.38
2018-10-11T06:58:46.866Z,19.4
2018-10-11T06:59:46.914Z,19.38
2018-10-11T07:00:46.860Z,19.38
2018-10-11T07:01:47.594Z,19.37
2018-10-11T07:02:47.202Z,19.37
2018-10-11T07:03:46.630Z,19.38
2018-10-11T07:04:46.883Z,19.39
2018-10-11T07:05:46.894Z,19.39
2018-10-11T07:06:46.872Z,19.4
2018-10-11T07:07:46.963Z,19.39
2018-10-11T07:08:47.012Z,19.38
2018-10-11T07:09:46.895Z,19.39
2018-10-11T07:10:47.242Z,19.37
2018-10-11T07:11:47.024Z,19.39
2018-10-11T07:12:46.796Z,19.38
2018-10-11T07:13:47.165Z,19.37
2018-10-11T07:14:46.993Z,19.36
2018-10-11T07:15:46.898Z,19.32
2018-10-11T07:16:46.889Z,19.33
2018-10-11T07:17:46.873Z,19.35
2018-10-11T07:18:46.847Z,19.33
2018-10-11T07:19:46.722Z,19.32
2018-10-11T07:20:46.978Z,19.3
2018-10-11T07:21:46.890Z,19.31
2018-10-11T07:22:46.784Z,19.29
2018-10-11T07:23:46.823Z,19.26
2018-10-11T07:24:46.910Z,19.26
2018-10-11T07:25:47.136Z,19.25
2018-10-11T07:26:46.603Z,19.22
2018-10-11T07:38:50.506Z,19.16
2018-10-11T07:40:49.771Z,19.22
2018-10-11T07:41:49.254Z,19.18
2018-10-11T07:42:50.058Z,19.17
2018-10-11T07:43:49.371Z,19.21
2018-10-11T07:45:49.548Z,19.23
2018-10-11T07:46:49.607Z,19.23
2018-10-11T07:48:49.525Z,19.24
2018-10-11T07:49:49.304Z,19.25
2018-10-11T07:50:49.427Z,19.27
2018-10-11T07:51:49.614Z,19.27
2018-10-11T07:53:49.332Z,19.26
2018-10-11T07:54:49.465Z,19.24
2018-10-11T07:55:49.492Z,19.27
2018-10-11T07:57:49.732Z,19.28
2018-10-11T07:58:49.219Z,19.29
2018-10-11T07:59:49.444Z,19.29
2018-10-11T08:00:49.744Z,19.27
2018-10-11T08:02:49.500Z,19.29
2018-10-11T08:04:49.471Z,19.27
2018-10-11T08:05:49.482Z,19.27
2018-10-11T08:06:49.718Z,19.28
2018-10-11T08:08:49.785Z,19.32
2018-10-11T08:09:49.485Z,19.3
2018-10-11T08:10:50.996Z,19.32
2018-10-11T08:13:49.427Z,19.3
2018-10-11T08:14:49.806Z,19.3
2018-10-11T08:15:50.547Z,19.3
2018-10-11T08:16:50.871Z,19.3
2018-10-11T08:18:50.088Z,19.32
2018-10-11T08:19:50.173Z,19.31
2018-10-11T08:20:49.395Z,19.33
2018-10-11T08:21:49.569Z,19.3
2018-10-11T08:24:50.309Z,19.31
2018-10-11T08:25:53.162Z,19.31
2018-10-11T08:28:49.598Z,19.35
2018-10-11T08:29:49.550Z,19.32
2018-10-11T08:30:49.428Z,19.32
2018-10-11T08:31:49.386Z,19.32
2018-10-11T08:33:49.471Z,19.3
2018-10-11T08:34:50.252Z,19.32
2018-10-11T08:35:49.260Z,19.33
2018-10-11T08:36:49.597Z,19.32
2018-10-11T08:38:49.300Z,19.32
2018-10-11T08:39:49.308Z,19.33
2018-10-11T08:40:49.316Z,19.36
2018-10-11T08:41:49.694Z,19.32
2018-10-11T08:43:49.735Z,19.35
2018-10-11T08:44:49.362Z,19.36
2018-10-11T08:45:49.434Z,19.32
2018-10-11T08:46:49.719Z,19.35
2018-10-11T08:48:49.702Z,19.32
2018-10-11T08:49:49.350Z,19.31
2018-10-11T08:50:50.105Z,19.33
2018-10-11T08:51:49.536Z,19.35
2018-10-11T08:53:49.286Z,19.32
2018-10-11T08:54:50.156Z,19.33
2018-10-11T08:56:49.422Z,19.33
2018-10-11T08:57:50.334Z,19.31
2018-10-11T08:58:49.823Z,19.32
2018-10-11T08:59:50.731Z,19.33
2018-10-11T09:01:50.152Z,19.32
2018-10-11T09:02:49.302Z,19.32
2018-10-11T09:03:50.726Z,19.32
2018-10-11T09:04:49.437Z,19.35
2018-10-11T09:07:49.799Z,19.36
2018-10-11T09:08:49.908Z,19.32
2018-10-11T09:09:54.075Z,19.33
2018-10-11T09:10:50.378Z,19.32
2018-10-11T09:12:49.694Z,19.33
2018-10-11T09:13:50.064Z,19.33
2018-10-11T09:14:49.487Z,19.31
2018-10-11T09:15:49.790Z,19.3
2018-10-11T09:17:49.590Z,19.32
2018-10-11T09:18:49.673Z,19.32
2018-10-11T09:19:49.844Z,19.36
2018-10-11T09:20:49.676Z,19.33
2018-10-11T09:23:49.563Z,19.33
2018-10-11T09:24:49.389Z,19.33
2018-10-11T09:25:49.693Z,19.35
2018-10-11T09:26:49.176Z,19.35
2018-10-11T09:28:49.695Z,19.35
2018-10-11T09:29:49.623Z,19.32
2018-10-11T09:30:49.543Z,19.33
2018-10-11T09:32:49.429Z,19.33
2018-10-11T09:33:49.407Z,19.33
2018-10-11T09:35:49.681Z,19.32
2018-10-11T09:37:49.686Z,19.36
2018-10-11T09:38:49.321Z,19.31
2018-10-11T09:39:49.736Z,19.35
2018-10-11T09:40:49.409Z,19.36
2018-10-11T09:42:49.585Z,19.32
2018-10-11T09:43:49.686Z,19.36
2018-10-11T09:45:49.823Z,19.31
2018-10-11T09:46:49.408Z,19.35
2018-10-11T09:47:49.357Z,19.29
2018-10-11T09:48:50.309Z,19.32
2018-10-11T09:50:49.692Z,19.32
2018-10-11T09:51:49.695Z,19.32
2018-10-11T09:52:49.302Z,19.35
2018-10-11T09:53:49.517Z,19.36
2018-10-11T09:55:49.447Z,19.36
2018-10-11T09:56:49.643Z,19.35
2018-10-11T09:57:49.779Z,19.29
2018-10-11T09:58:49.465Z,19.33
2018-10-11T10:00:49.470Z,19.32
2018-10-11T10:01:49.991Z,19.32
2018-10-11T10:03:49.710Z,19.32
2018-10-11T10:04:49.350Z,19.33
2018-10-11T10:05:49.411Z,19.32
2018-10-11T10:06:49.257Z,19.32
2018-10-11T10:08:49.581Z,19.35
2018-10-11T10:09:50.113Z,19.33
2018-10-11T10:10:49.729Z,19.35
2018-10-11T10:11:49.272Z,19.32
2018-10-11T10:13:49.622Z,19.31
2018-10-11T10:14:49.353Z,19.33
2018-10-11T10:15:49.288Z,19.35
2018-10-11T10:16:49.317Z,19.35
2018-10-11T10:18:49.440Z,19.36
2018-10-11T10:19:49.385Z,19.35
2018-10-11T10:21:49.242Z,19.36
2018-10-11T10:22:49.355Z,19.36
2018-10-11T10:23:49.607Z,19.39
2018-10-11T10:24:49.290Z,19.37
2018-10-11T10:26:50.075Z,19.41
2018-10-11T10:27:49.316Z,19.42
2018-10-11T10:28:49.428Z,19.43
2018-10-11T10:31:49.304Z,19.47
2018-10-11T10:32:49.670Z,19.48
2018-10-11T10:34:49.358Z,19.51
2018-10-11T10:35:49.412Z,19.5
2018-10-11T10:36:49.377Z,19.51
2018-10-11T10:37:50.224Z,19.53
2018-10-11T10:39:50.290Z,19.55
2018-10-11T10:40:49.715Z,19.54
2018-10-11T10:41:49.260Z,19.56
2018-10-11T10:42:49.389Z,19.55
2018-10-11T10:44:49.749Z,19.58
2018-10-11T10:45:49.711Z,19.58
2018-10-11T10:46:49.343Z,19.58
2018-10-11T10:47:49.803Z,19.59
2018-10-11T10:49:49.261Z,19.59
2018-10-11T10:50:49.694Z,19.61
2018-10-11T10:51:49.700Z,19.61
2018-10-11T10:52:49.420Z,19.61
2018-10-11T10:54:49.665Z,19.63
2018-10-11T10:56:49.648Z,19.65
2018-10-11T10:57:49.522Z,19.65
2018-10-11T10:59:49.256Z,19.62
2018-10-11T11:00:49.516Z,19.59
2018-10-11T11:01:49.343Z,19.59
2018-10-11T11:02:49.571Z,19.59
2018-10-11T11:04:49.695Z,19.58
2018-10-11T11:05:49.429Z,19.59
2018-10-11T11:07:50.040Z,19.59
2018-10-11T11:08:49.609Z,19.57
2018-10-11T11:09:49.256Z,19.59
2018-10-11T11:11:49.374Z,19.54
2018-10-11T11:12:49.344Z,19.56
2018-10-11T11:13:49.380Z,19.55
2018-10-11T11:14:49.461Z,19.54
2018-10-11T11:16:49.448Z,19.56
2018-10-11T11:17:49.571Z,19.55
2018-10-11T11:19:49.364Z,19.53
2018-10-11T11:20:49.690Z,19.56
2018-10-11T11:21:49.585Z,19.53
2018-10-11T11:25:49.647Z,19.53
2018-10-11T11:26:49.529Z,19.53
2018-10-11T11:27:49.836Z,19.52
2018-10-11T11:30:49.613Z,19.51
2018-10-11T11:32:49.672Z,19.52
2018-10-11T11:33:49.310Z,19.51
2018-10-11T11:34:49.397Z,19.52
2018-10-11T11:36:49.483Z,19.5
2018-10-11T11:37:49.634Z,19.5
2018-10-11T11:38:49.360Z,19.5
2018-10-11T11:41:49.663Z,19.52
2018-10-11T11:43:49.567Z,19.5
2018-10-11T11:44:49.275Z,19.47
2018-10-11T11:45:49.951Z,19.51
2018-10-11T11:47:49.196Z,19.5
2018-10-11T11:48:49.504Z,19.47
2018-10-11T11:49:49.423Z,19.5
2018-10-11T11:50:49.184Z,19.5
2018-10-11T11:52:49.445Z,19.5
2018-10-11T11:53:49.358Z,19.5
2018-10-11T11:54:49.296Z,19.48
2018-10-11T11:55:49.378Z,19.5
2018-10-11T11:57:50.007Z,19.5
2018-10-11T11:59:49.685Z,19.48
2018-10-11T12:00:49.461Z,19.5
2018-10-11T12:02:50.893Z,19.47
2018-10-11T12:03:49.423Z,19.5
2018-10-11T12:04:49.167Z,19.48
2018-10-11T12:05:49.445Z,19.5
2018-10-11T12:07:49.834Z,19.47
2018-10-11T12:08:49.783Z,19.46
2018-10-11T12:10:49.655Z,19.47
2018-10-11T12:11:49.208Z,19.5
2018-10-11T12:12:49.364Z,19.48
2018-10-11T12:13:49.675Z,19.47
2018-10-11T12:15:49.170Z,19.46
2018-10-11T12:16:49.359Z,19.5
2018-10-11T12:17:49.520Z,19.45
2018-10-11T12:18:49.569Z,19.47
2018-10-11T12:20:49.427Z,19.46
2018-10-11T12:21:50.165Z,19.47
2018-10-11T12:23:49.649Z,19.48
2018-10-11T12:24:49.783Z,19.47
2018-10-11T12:26:50.079Z,19.5
2018-10-11T12:27:49.269Z,19.47
2018-10-11T12:28:49.930Z,19.47
2018-10-11T12:29:49.290Z,19.48
2018-10-11T12:31:49.410Z,19.5
2018-10-11T12:32:49.498Z,19.45
2018-10-11T12:33:49.358Z,19.48
2018-10-11T12:34:49.469Z,19.46
2018-10-11T12:36:49.725Z,19.48
2018-10-11T12:37:50.421Z,19.46
2018-10-11T12:38:50.481Z,19.46
2018-10-11T12:39:49.713Z,19.45
2018-10-11T12:42:49.731Z,19.45
2018-10-11T12:43:49.365Z,19.45
2018-10-11T12:44:49.303Z,19.45
2018-10-11T12:47:49.530Z,19.46
2018-10-11T12:48:49.666Z,19.46
2018-10-11T12:49:49.884Z,19.46
2018-10-11T12:51:50.301Z,19.45
2018-10-11T12:52:49.462Z,19.46
2018-10-11T12:53:49.422Z,19.46
2018-10-11T12:54:49.734Z,19.45
2018-10-11T12:56:50.192Z,19.45
2018-10-11T12:57:49.544Z,19.46
2018-10-11T12:58:49.367Z,19.44
2018-10-11T12:59:49.297Z,19.46
2018-10-11T13:01:49.161Z,19.47
2018-10-11T13:02:50.477Z,19.47
2018-10-11T13:04:49.440Z,19.48
2018-10-11T13:05:49.498Z,19.47
2018-10-11T13:06:49.299Z,19.45
2018-10-11T13:07:49.359Z,19.47
2018-10-11T13:10:49.272Z,19.45
2018-10-11T13:11:49.161Z,19.45
2018-10-11T13:12:49.357Z,19.45
2018-10-11T13:13:53.189Z,19.46
2018-10-11T13:15:50.290Z,19.45
2018-10-11T13:16:49.310Z,19.44
2018-10-11T13:17:49.148Z,19.47
2018-10-11T13:18:49.405Z,19.45
2018-10-11T13:20:49.279Z,19.43
2018-10-11T13:21:49.482Z,19.44
2018-10-11T13:22:49.617Z,19.46
2018-10-11T13:24:49.950Z,19.45
2018-10-11T13:26:49.690Z,19.44
2018-10-11T13:27:49.319Z,19.45
2018-10-11T13:28:50.144Z,19.46
2018-10-11T13:29:49.556Z,19.45
2018-10-11T13:31:49.350Z,19.47
2018-10-11T13:32:49.160Z,19.46
2018-10-11T13:33:53.178Z,19.44
2018-10-11T13:36:49.431Z,19.43
2018-10-11T13:37:49.244Z,19.45
2018-10-11T13:38:49.332Z,19.45
2018-10-11T13:39:58.316Z,19.41
2018-10-11T13:41:50.246Z,19.44
2018-10-11T13:44:49.404Z,19.45
2018-10-11T13:46:04.038Z,19.44
2018-10-11T13:47:49.563Z,19.46
2018-10-11T13:49:49.621Z,19.45
2018-10-11T13:50:49.361Z,19.43
2018-10-11T13:51:49.267Z,19.47
2018-10-11T13:53:59.131Z,19.45
2018-10-11T13:57:49.253Z,19.45
2018-10-11T13:58:49.667Z,19.43
2018-10-11T13:59:49.415Z,19.43
2018-10-11T14:00:49.316Z,19.44
2018-10-11T14:02:49.143Z,19.42
2018-10-11T14:03:49.318Z,19.45
2018-10-11T14:04:49.281Z,19.44
2018-10-11T14:05:49.669Z,19.45
2018-10-11T14:08:49.128Z,19.43
2018-10-11T14:09:49.311Z,19.43
2018-10-11T14:10:49.473Z,19.44
2018-10-11T14:12:49.284Z,19.43
2018-10-11T14:13:49.143Z,19.44
2018-10-11T14:14:49.233Z,19.45
2018-10-11T14:16:49.243Z,19.44
2018-10-11T14:18:49.267Z,19.44
2018-10-11T14:19:49.656Z,19.46
2018-10-11T14:20:49.096Z,19.43
2018-10-11T14:21:49.511Z,19.46
2018-10-11T14:24:49.130Z,19.44
2018-10-11T14:25:49.372Z,19.45
2018-10-11T14:27:49.362Z,19.44
2018-10-11T14:30:49.231Z,19.44
2018-10-11T14:31:49.046Z,19.44
2018-10-11T14:32:49.424Z,19.46
2018-10-11T14:33:49.498Z,19.43
2018-10-11T14:35:49.288Z,19.45
2018-10-11T14:37:49.385Z,19.45
2018-10-11T14:38:49.323Z,19.43
2018-10-11T14:39:49.371Z,19.44
2018-10-11T14:40:49.335Z,19.44
2018-10-11T14:42:50.451Z,19.42
2018-10-11T14:43:49.497Z,19.41
2018-10-11T14:44:49.197Z,19.43
2018-10-11T14:45:49.401Z,19.42
2018-10-11T14:47:49.721Z,19.43
2018-10-11T14:48:49.416Z,19.45
2018-10-11T14:49:49.553Z,19.45
2018-10-11T14:50:49.707Z,19.44
2018-10-11T14:52:49.407Z,19.43
2018-10-11T14:53:59.881Z,19.44
2018-10-11T14:56:49.430Z,19.44
2018-10-11T14:58:49.544Z,19.44
2018-10-11T14:59:51.085Z,19.46
2018-10-11T15:00:49.401Z,19.43
2018-10-11T15:01:49.771Z,19.45
2018-10-11T15:03:50.439Z,19.44
2018-10-11T15:04:50.587Z,19.43
2018-10-11T15:05:49.503Z,19.45
2018-10-11T15:07:49.586Z,19.45
2018-10-11T15:08:50.232Z,19.43
2018-10-11T15:09:49.418Z,19.44
2018-10-11T15:10:51.479Z,19.44
2018-10-11T15:12:49.767Z,19.44
2018-10-11T15:14:49.154Z,19.42
2018-10-11T15:15:49.945Z,19.45
2018-10-11T15:16:49.648Z,19.44